sensor_id;sensor_type;location;lat;lon;timestamp;pressure;altitude;pressure_sealevel;temperature;humidity
42725;BME280;28369;44.046;23.014;2023-02-11T00:01:34;103085.13;;;2.87;42.93
42725;BME280;28369;44.046;23.014;2023-02-11T00:04:00;102640.06;;;0.36;42.69
42725;BME280;28369;44.046;23.014;2023-02-11T00:06:28;102897.91;;;1.60;42.67
42725;BME280;28369;44.046;23.014;2023-02-11T00:08:55;102647.97;;;0.16;42.60
42725;BME280;28369;44.046;23.014;2023-02-11T00:11:21;102524.34;;;-0.47;42.40
42725;BME280;28369;44.046;23.014;2023-02-11T00:13:49;102847.25;;;1.28;42.44
42725;BME280;28369;44.046;23.014;2023-02-11T00:16:18;102943.41;;;1.88;42.17
42725;BME280;28369;44.046;23.014;2023-02-11T00:18:44;102852.47;;;1.25;42.23
42725;BME280;28369;44.046;23.014;2023-02-11T00:21:15;102684.47;;;-0.23;41.79
42725;BME280;28369;44.046;23.014;2023-02-11T00:23:43;102639.81;;;-0.53;42.20
42725;BME280;28369;44.046;23.014;2023-02-11T00:26:12;103257.00;;;3.31;41.96
42725;BME280;28369;44.046;23.014;2023-02-11T00:28:38;102623.59;;;-0.82;41.70
42725;BME280;28369;44.046;23.014;2023-02-11T00:31:04;102663.25;;;-0.96;41.91
42725;BME280;28369;44.046;23.014;2023-02-11T00:33:30;102573.94;;;-1.49;41.82
42725;BME280;28369;44.046;23.014;2023-02-11T00:35:56;102625.56;;;-1.83;42.39
42725;BME280;28369;44.046;23.014;2023-02-11T00:38:21;102992.03;;;0.21;42.60
42725;BME280;28369;44.046;23.014;2023-02-11T00:40:47;102770.88;;;-1.49;42.75
42725;BME280;28369;44.046;23.014;2023-02-11T00:43:13;103081.75;;;-0.36;44.55
42725;BME280;28369;44.046;23.014;2023-02-11T00:45:38;102659.06;;;-2.06;43.25
42725;BME280;28369;44.046;23.014;2023-02-11T00:48:04;102888.66;;;-0.09;42.50
42725;BME280;28369;44.046;23.014;2023-02-11T00:50:30;102625.56;;;-1.89;42.22
42725;BME280;28369;44.046;23.014;2023-02-11T00:52:55;103019.34;;;0.93;41.85
42725;BME280;28369;44.046;23.014;2023-02-11T00:55:21;102725.16;;;-0.70;41.81
42725;BME280;28369;44.046;23.014;2023-02-11T00:57:47;102588.56;;;-1.62;41.77
42725;BME280;28369;44.046;23.014;2023-02-11T01:00:13;102624.66;;;-1.47;41.37
42725;BME280;28369;44.046;23.014;2023-02-11T01:02:40;102755.34;;;-0.87;41.83
42725;BME280;28369;44.046;23.014;2023-02-11T01:05:06;102993.63;;;0.60;41.97
42725;BME280;28369;44.046;23.014;2023-02-11T01:07:31;103250.00;;;2.52;41.37
42725;BME280;28369;44.046;23.014;2023-02-11T01:09:57;102680.53;;;-1.23;41.36
42725;BME280;28369;44.046;23.014;2023-02-11T01:12:23;102655.59;;;-1.34;41.63
42725;BME280;28369;44.046;23.014;2023-02-11T01:14:48;102919.63;;;0.17;41.84
42725;BME280;28369;44.046;23.014;2023-02-11T01:17:14;102654.75;;;-1.50;41.75
42725;BME280;28369;44.046;23.014;2023-02-11T01:19:40;102758.84;;;-1.14;42.12
42725;BME280;28369;44.046;23.014;2023-02-11T01:22:06;102974.72;;;0.38;42.22
42725;BME280;28369;44.046;23.014;2023-02-11T01:24:32;102604.94;;;-1.93;41.75
42725;BME280;28369;44.046;23.014;2023-02-11T01:26:57;102568.84;;;-1.93;41.84
42725;BME280;28369;44.046;23.014;2023-02-11T01:29:23;102735.50;;;-0.80;42.09
42725;BME280;28369;44.046;23.014;2023-02-11T01:31:48;103267.47;;;2.32;41.75
42725;BME280;28369;44.046;23.014;2023-02-11T01:34:14;103264.97;;;2.18;42.02
42725;BME280;28369;44.046;23.014;2023-02-11T01:36:41;102610.03;;;-1.49;41.60
42725;BME280;28369;44.046;23.014;2023-02-11T01:39:07;102634.09;;;-1.32;41.66
42725;BME280;28369;44.046;23.014;2023-02-11T01:41:36;102628.09;;;-1.43;42.34
42725;BME280;28369;44.046;23.014;2023-02-11T01:44:40;102589.44;;;-1.71;41.67
42725;BME280;28369;44.046;23.014;2023-02-11T01:47:06;103209.66;;;2.08;42.01
42725;BME280;28369;44.046;23.014;2023-02-11T01:49:38;102674.56;;;-1.38;42.18
42725;BME280;28369;44.046;23.014;2023-02-11T01:52:15;102505.28;;;-2.37;42.42
42725;BME280;28369;44.046;23.014;2023-02-11T01:54:49;102907.66;;;-0.21;42.33
42725;BME280;28369;44.046;23.014;2023-02-11T01:57:36;103251.25;;;1.96;42.09
42725;BME280;28369;44.046;23.014;2023-02-11T02:00:51;102819.00;;;-0.54;41.67
42725;BME280;28369;44.046;23.014;2023-02-11T02:06:00;103203.06;;;1.58;41.93
42725;BME280;28369;44.046;23.014;2023-02-11T02:08:37;102610.06;;;-2.20;41.85
42725;BME280;28369;44.046;23.014;2023-02-11T02:11:08;102880.13;;;-0.40;41.83
42725;BME280;28369;44.046;23.014;2023-02-11T02:13:34;102847.44;;;-0.84;41.62
42725;BME280;28369;44.046;23.014;2023-02-11T02:16:03;102508.69;;;-2.75;41.65
42725;BME280;28369;44.046;23.014;2023-02-11T02:35:28;102586.81;;;-2.70;41.28
42725;BME280;28369;44.046;23.014;2023-02-11T02:40:47;102528.34;;;-3.05;41.36
42725;BME280;28369;44.046;23.014;2023-02-11T02:43:14;102467.41;;;-3.15;41.08
42725;BME280;28369;44.046;23.014;2023-02-11T02:45:41;102728.72;;;-1.46;41.27
42725;BME280;28369;44.046;23.014;2023-02-11T02:48:20;102635.81;;;-2.40;41.00
42725;BME280;28369;44.046;23.014;2023-02-11T02:50:48;102903.41;;;-0.82;40.88
42725;BME280;28369;44.046;23.014;2023-02-11T02:53:40;102858.63;;;-1.09;41.74
42725;BME280;28369;44.046;23.014;2023-02-11T02:56:17;102880.19;;;-0.74;41.01
42725;BME280;28369;44.046;23.014;2023-02-11T02:59:07;102727.03;;;-1.63;40.20
42725;BME280;28369;44.046;23.014;2023-02-11T03:01:51;103190.97;;;1.52;40.15
42725;BME280;28369;44.046;23.014;2023-02-11T03:04:23;103201.38;;;1.47;39.85
42725;BME280;28369;44.046;23.014;2023-02-11T03:07:01;103192.78;;;1.34;40.16
42725;BME280;28369;44.046;23.014;2023-02-11T03:09:58;102984.22;;;0.39;39.65
42725;BME280;28369;44.046;23.014;2023-02-11T03:12:27;102637.59;;;-1.85;39.85
42725;BME280;28369;44.046;23.014;2023-02-11T03:14:54;102593.75;;;-2.22;40.04
42725;BME280;28369;44.046;23.014;2023-02-11T03:17:22;103164.13;;;1.61;39.79
42725;BME280;28369;44.046;23.014;2023-02-11T03:19:49;102622.13;;;-1.79;39.78
42725;BME280;28369;44.046;23.014;2023-02-11T03:22:29;102939.44;;;0.15;40.72
42725;BME280;28369;44.046;23.014;2023-02-11T03:24:56;103185.59;;;1.87;40.32
42725;BME280;28369;44.046;23.014;2023-02-11T03:27:46;102722.59;;;-0.76;41.14
42725;BME280;28369;44.046;23.014;2023-02-11T03:30:31;102525.00;;;-1.99;41.13
42725;BME280;28369;44.046;23.014;2023-02-11T03:33:07;102632.38;;;-1.25;41.90
42725;BME280;28369;44.046;23.014;2023-02-11T03:35:55;103174.66;;;2.54;41.41
42725;BME280;28369;44.046;23.014;2023-02-11T03:38:32;103188.31;;;2.76;41.69
42725;BME280;28369;44.046;23.014;2023-02-11T03:41:00;103180.41;;;2.85;41.63
42725;BME280;28369;44.046;23.014;2023-02-11T03:43:37;102592.53;;;-0.70;41.42
42725;BME280;28369;44.046;23.014;2023-02-11T03:46:05;102484.41;;;-1.32;41.19
42725;BME280;28369;44.046;23.014;2023-02-11T03:48:34;102507.63;;;-1.30;41.34
42725;BME280;28369;44.046;23.014;2023-02-11T03:51:04;102577.88;;;-0.65;41.04
42725;BME280;28369;44.046;23.014;2023-02-11T03:53:31;102617.38;;;-0.47;41.01
42725;BME280;28369;44.046;23.014;2023-02-11T03:55:59;102590.81;;;-0.66;40.66
42725;BME280;28369;44.046;23.014;2023-02-11T03:58:27;102587.09;;;-0.24;40.32
42725;BME280;28369;44.046;23.014;2023-02-11T04:00:52;102663.69;;;-0.12;40.15
42725;BME280;28369;44.046;23.014;2023-02-11T04:03:18;102622.56;;;-0.50;40.53
42725;BME280;28369;44.046;23.014;2023-02-11T04:05:44;102623.44;;;-0.48;40.59
42725;BME280;28369;44.046;23.014;2023-02-11T04:08:09;102597.75;;;-0.76;41.83
42725;BME280;28369;44.046;23.014;2023-02-11T04:10:35;102722.06;;;0.26;40.47
42725;BME280;28369;44.046;23.014;2023-02-11T04:13:01;102798.56;;;0.63;39.95
42725;BME280;28369;44.046;23.014;2023-02-11T04:15:27;102629.41;;;-0.42;39.50
42725;BME280;28369;44.046;23.014;2023-02-11T04:17:53;102530.66;;;-0.93;38.67
42725;BME280;28369;44.046;23.014;2023-02-11T04:20:18;102739.31;;;0.27;38.70
42725;BME280;28369;44.046;23.014;2023-02-11T04:22:44;102552.31;;;-1.14;38.47
42725;BME280;28369;44.046;23.014;2023-02-11T04:25:10;102551.56;;;-1.41;38.29
42725;BME280;28369;44.046;23.014;2023-02-11T04:27:36;102903.84;;;0.65;38.46
42725;BME280;28369;44.046;23.014;2023-02-11T04:30:02;103170.59;;;2.23;39.32
42725;BME280;28369;44.046;23.014;2023-02-11T04:32:28;102607.41;;;-1.26;40.57
42725;BME280;28369;44.046;23.014;2023-02-11T04:34:53;102708.66;;;-0.38;41.48
42725;BME280;28369;44.046;23.014;2023-02-11T04:37:20;102533.50;;;-1.52;41.23
42725;BME280;28369;44.046;23.014;2023-02-11T04:39:45;102400.41;;;-1.95;41.57
42725;BME280;28369;44.046;23.014;2023-02-11T04:42:11;102775.56;;;0.21;41.31
42725;BME280;28369;44.046;23.014;2023-02-11T04:44:37;103148.34;;;2.86;40.88
42725;BME280;28369;44.046;23.014;2023-02-11T04:47:02;102727.78;;;0.64;40.14
42725;BME280;28369;44.046;23.014;2023-02-11T04:49:28;102917.78;;;1.61;39.34
42725;BME280;28369;44.046;23.014;2023-02-11T04:51:54;102764.91;;;0.63;39.63
42725;BME280;28369;44.046;23.014;2023-02-11T04:54:20;103136.09;;;2.98;39.45
42725;BME280;28369;44.046;23.014;2023-02-11T04:56:46;102549.69;;;-1.08;39.47
42725;BME280;28369;44.046;23.014;2023-02-11T04:59:14;102956.91;;;1.36;39.30
42725;BME280;28369;44.046;23.014;2023-02-11T05:01:40;102532.47;;;-1.09;39.11
42725;BME280;28369;44.046;23.014;2023-02-11T05:04:06;102514.47;;;-1.17;39.80
42725;BME280;28369;44.046;23.014;2023-02-11T05:06:31;102739.19;;;0.41;39.50
42725;BME280;28369;44.046;23.014;2023-02-11T05:08:57;103138.56;;;3.07;39.67
42725;BME280;28369;44.046;23.014;2023-02-11T05:11:24;102522.75;;;-0.62;39.63
42725;BME280;28369;44.046;23.014;2023-02-11T05:13:50;102606.94;;;-0.30;39.65
42725;BME280;28369;44.046;23.014;2023-02-11T05:16:16;102827.66;;;0.97;39.95
42725;BME280;28369;44.046;23.014;2023-02-11T05:18:43;102904.69;;;1.70;39.70
42725;BME280;28369;44.046;23.014;2023-02-11T05:21:11;102533.16;;;-0.75;39.72
42725;BME280;28369;44.046;23.014;2023-02-11T05:23:38;102934.63;;;1.10;41.99
42725;BME280;28369;44.046;23.014;2023-02-11T05:26:04;102563.31;;;-0.83;40.95
42725;BME280;28369;44.046;23.014;2023-02-11T05:28:30;102484.63;;;-2.09;42.14
42725;BME280;28369;44.046;23.014;2023-02-11T05:30:55;102654.75;;;-1.24;42.29
42725;BME280;28369;44.046;23.014;2023-02-11T05:33:21;102752.53;;;-0.22;42.12
42725;BME280;28369;44.046;23.014;2023-02-11T05:35:47;102611.72;;;-1.36;42.57
42725;BME280;28369;44.046;23.014;2023-02-11T05:38:13;102552.50;;;-1.70;42.40
42725;BME280;28369;44.046;23.014;2023-02-11T05:40:39;102670.91;;;-0.70;41.88
42725;BME280;28369;44.046;23.014;2023-02-11T05:43:04;102587.59;;;-1.16;41.97
42725;BME280;28369;44.046;23.014;2023-02-11T05:45:30;102964.94;;;0.97;43.21
42725;BME280;28369;44.046;23.014;2023-02-11T05:47:56;102564.50;;;-1.57;44.30
42725;BME280;28369;44.046;23.014;2023-02-11T05:50:22;102560.91;;;-1.15;44.20
42725;BME280;28369;44.046;23.014;2023-02-11T05:52:48;102553.97;;;-1.09;44.17
42725;BME280;28369;44.046;23.014;2023-02-11T05:55:13;102439.94;;;-1.93;44.53
42725;BME280;28369;44.046;23.014;2023-02-11T05:57:39;102961.72;;;1.76;43.69
42725;BME280;28369;44.046;23.014;2023-02-11T06:00:05;102557.38;;;-0.93;44.40
42725;BME280;28369;44.046;23.014;2023-02-11T06:02:31;102738.09;;;0.68;43.11
42725;BME280;28369;44.046;23.014;2023-02-11T06:04:57;102811.19;;;1.01;42.70
42725;BME280;28369;44.046;23.014;2023-02-11T06:07:22;102569.16;;;-0.52;43.32
42725;BME280;28369;44.046;23.014;2023-02-11T06:09:48;102556.34;;;-0.64;43.37
42725;BME280;28369;44.046;23.014;2023-02-11T06:12:14;102901.00;;;1.01;43.20
42725;BME280;28369;44.046;23.014;2023-02-11T06:14:40;102553.59;;;-0.39;42.95
42725;BME280;28369;44.046;23.014;2023-02-11T06:17:06;102606.28;;;-0.62;43.25
42725;BME280;28369;44.046;23.014;2023-02-11T06:19:32;102908.94;;;1.82;43.31
42725;BME280;28369;44.046;23.014;2023-02-11T06:21:57;102995.06;;;2.13;43.87
42725;BME280;28369;44.046;23.014;2023-02-11T06:24:23;102647.97;;;0.17;43.30
42725;BME280;28369;44.046;23.014;2023-02-11T06:26:49;102846.50;;;1.97;42.17
42725;BME280;28369;44.046;23.014;2023-02-11T06:29:15;102576.41;;;0.15;42.21
42725;BME280;28369;44.046;23.014;2023-02-11T06:31:40;102915.66;;;1.97;42.72
42725;BME280;28369;44.046;23.014;2023-02-11T06:34:07;102976.31;;;2.61;41.98
42725;BME280;28369;44.046;23.014;2023-02-11T06:36:33;102795.00;;;1.63;41.95
42725;BME280;28369;44.046;23.014;2023-02-11T06:38:59;102739.16;;;1.36;41.53
42725;BME280;28369;44.046;23.014;2023-02-11T06:41:24;102562.13;;;0.61;41.44
42725;BME280;28369;44.046;23.014;2023-02-11T06:43:51;102573.38;;;0.60;41.65
42725;BME280;28369;44.046;23.014;2023-02-11T06:46:17;102927.00;;;3.17;41.39
42725;BME280;28369;44.046;23.014;2023-02-11T06:48:43;102647.50;;;1.43;41.32
42725;BME280;28369;44.046;23.014;2023-02-11T06:51:10;102974.16;;;3.97;40.98
42725;BME280;28369;44.046;23.014;2023-02-11T06:53:40;102861.75;;;3.33;40.70
42725;BME280;28369;44.046;23.014;2023-02-11T06:56:08;102645.22;;;2.34;40.87
42725;BME280;28369;44.046;23.014;2023-02-11T06:58:35;102628.78;;;2.35;40.48
42725;BME280;28369;44.046;23.014;2023-02-11T07:01:05;102654.94;;;2.72;40.01
42725;BME280;28369;44.046;23.014;2023-02-11T07:03:36;102708.50;;;3.25;40.49
42725;BME280;28369;44.046;23.014;2023-02-11T07:06:03;102642.69;;;3.21;40.27
42725;BME280;28369;44.046;23.014;2023-02-11T07:08:31;102745.44;;;3.83;39.88
42725;BME280;28369;44.046;23.014;2023-02-11T07:10:57;102801.09;;;4.54;39.79
42725;BME280;28369;44.046;23.014;2023-02-11T07:13:23;103152.91;;;6.47;40.05
42725;BME280;28369;44.046;23.014;2023-02-11T07:15:48;102611.56;;;3.18;40.31
42725;BME280;28369;44.046;23.014;2023-02-11T07:18:14;102866.41;;;4.46;40.54
42725;BME280;28369;44.046;23.014;2023-02-11T07:20:40;102608.91;;;3.21;40.84
42725;BME280;28369;44.046;23.014;2023-02-11T07:23:06;103209.94;;;6.65;40.29
42725;BME280;28369;44.046;23.014;2023-02-11T07:25:32;102626.94;;;2.87;41.13
42725;BME280;28369;44.046;23.014;2023-02-11T07:27:58;103087.91;;;6.34;40.24
42725;BME280;28369;44.046;23.014;2023-02-11T07:30:23;102749.28;;;4.04;40.85
42725;BME280;28369;44.046;23.014;2023-02-11T07:32:49;102747.88;;;4.28;40.91
42725;BME280;28369;44.046;23.014;2023-02-11T07:35:15;102627.91;;;4.02;40.42
42725;BME280;28369;44.046;23.014;2023-02-11T07:37:41;102736.34;;;4.01;41.37
42725;BME280;28369;44.046;23.014;2023-02-11T07:40:07;102649.41;;;3.72;41.68
42725;BME280;28369;44.046;23.014;2023-02-11T07:42:34;103169.78;;;6.99;41.69
42725;BME280;28369;44.046;23.014;2023-02-11T07:45:00;102645.88;;;3.75;41.34
42725;BME280;28369;44.046;23.014;2023-02-11T07:47:26;102644.38;;;4.37;40.82
42725;BME280;28369;44.046;23.014;2023-02-11T07:49:51;103187.19;;;7.60;41.08
42725;BME280;28369;44.046;23.014;2023-02-11T07:52:17;103144.03;;;7.73;41.24
42725;BME280;28369;44.046;23.014;2023-02-11T07:54:43;103186.59;;;7.22;41.66
42725;BME280;28369;44.046;23.014;2023-02-11T07:57:09;102604.84;;;4.54;40.70
42725;BME280;28369;44.046;23.014;2023-02-11T07:59:34;102810.78;;;5.51;40.97
42725;BME280;28369;44.046;23.014;2023-02-11T08:02:00;102622.25;;;4.84;40.74
42725;BME280;28369;44.046;23.014;2023-02-11T08:04:26;102791.91;;;6.59;40.10
42725;BME280;28369;44.046;23.014;2023-02-11T08:06:51;102657.56;;;5.83;40.17
42725;BME280;28369;44.046;23.014;2023-02-11T08:09:20;102722.13;;;6.34;40.25
42725;BME280;28369;44.046;23.014;2023-02-11T08:11:45;102836.13;;;7.17;40.18
42725;BME280;28369;44.046;23.014;2023-02-11T08:14:11;102917.69;;;8.04;40.07
42725;BME280;28369;44.046;23.014;2023-02-11T08:16:37;102977.94;;;7.81;40.01
42725;BME280;28369;44.046;23.014;2023-02-11T08:19:06;103189.69;;;8.95;40.62
42725;BME280;28369;44.046;23.014;2023-02-11T08:21:32;102808.91;;;7.23;39.68
42725;BME280;28369;44.046;23.014;2023-02-11T08:24:00;102864.50;;;7.78;39.58
42725;BME280;28369;44.046;23.014;2023-02-11T08:26:29;102895.97;;;8.26;39.10
42725;BME280;28369;44.046;23.014;2023-02-11T08:28:56;102837.88;;;8.13;38.52
42725;BME280;28369;44.046;23.014;2023-02-11T08:31:24;102580.38;;;6.53;39.61
42725;BME280;28369;44.046;23.014;2023-02-11T08:33:50;102621.06;;;6.85;39.17
42725;BME280;28369;44.046;23.014;2023-02-11T08:36:19;102834.34;;;8.38;39.33
42725;BME280;28369;44.046;23.014;2023-02-11T08:38:46;102894.63;;;9.04;39.25
42725;BME280;28369;44.046;23.014;2023-02-11T08:41:12;102620.88;;;7.37;39.11
42725;BME280;28369;44.046;23.014;2023-02-11T08:43:42;102567.81;;;6.88;39.79
42725;BME280;28369;44.046;23.014;2023-02-11T08:46:11;102575.84;;;7.05;39.64
42725;BME280;28369;44.046;23.014;2023-02-11T08:48:37;102621.19;;;7.06;39.82
42725;BME280;28369;44.046;23.014;2023-02-11T08:51:07;102882.09;;;9.11;38.92
42725;BME280;28369;44.046;23.014;2023-02-11T08:53:34;102940.63;;;9.13;39.58
42725;BME280;28369;44.046;23.014;2023-02-11T08:56:00;102552.41;;;7.26;39.33
42725;BME280;28369;44.046;23.014;2023-02-11T08:58:26;103113.03;;;10.80;39.26
42725;BME280;28369;44.046;23.014;2023-02-11T09:00:51;102567.56;;;6.94;39.31
42725;BME280;28369;44.046;23.014;2023-02-11T09:03:17;102880.00;;;9.19;39.38
42725;BME280;28369;44.046;23.014;2023-02-11T09:05:45;103110.13;;;10.86;38.50
42725;BME280;28369;44.046;23.014;2023-02-11T09:08:11;102620.94;;;7.58;38.94
42725;BME280;28369;44.046;23.014;2023-02-11T09:10:37;102605.94;;;7.61;38.73
42725;BME280;28369;44.046;23.014;2023-02-11T09:13:04;102841.75;;;8.26;40.12
42725;BME280;28369;44.046;23.014;2023-02-11T09:15:30;102608.19;;;7.49;39.12
42725;BME280;28369;44.046;23.014;2023-02-11T09:17:56;103184.19;;;10.77;39.41
42725;BME280;28369;44.046;23.014;2023-02-11T09:20:22;102772.34;;;9.21;39.06
42725;BME280;28369;44.046;23.014;2023-02-11T09:22:49;102607.94;;;8.20;38.89
42725;BME280;28369;44.046;23.014;2023-02-11T09:25:15;103137.72;;;10.97;38.78
42725;BME280;28369;44.046;23.014;2023-02-11T09:27:41;102775.97;;;9.37;38.69
42725;BME280;28369;44.046;23.014;2023-02-11T09:30:06;102921.56;;;10.49;38.31
42725;BME280;28369;44.046;23.014;2023-02-11T09:32:33;103115.91;;;12.22;37.61
42725;BME280;28369;44.046;23.014;2023-02-11T09:34:58;102625.72;;;8.94;38.03
42725;BME280;28369;44.046;23.014;2023-02-11T09:37:24;102665.81;;;8.77;38.12
42725;BME280;28369;44.046;23.014;2023-02-11T09:39:50;102824.63;;;10.03;37.83
42725;BME280;28369;44.046;23.014;2023-02-11T09:44:51;102874.50;;;10.79;37.18
42725;BME280;28369;44.046;23.014;2023-02-11T09:47:31;103078.84;;;12.90;36.49
42725;BME280;28369;44.046;23.014;2023-02-11T09:50:01;103081.38;;;12.26;37.27
42725;BME280;28369;44.046;23.014;2023-02-11T09:55:03;103074.94;;;12.98;36.45
42725;BME280;28369;44.046;23.014;2023-02-11T09:57:34;102537.13;;;9.55;36.64
42725;BME280;28369;44.046;23.014;2023-02-11T10:00:02;102568.66;;;9.90;36.65
42725;BME280;28369;44.046;23.014;2023-02-11T10:02:53;103093.69;;;13.41;35.92
42725;BME280;28369;44.046;23.014;2023-02-11T10:11:27;103050.00;;;13.94;35.24
42725;BME280;28369;44.046;23.014;2023-02-11T10:17:09;103031.81;;;12.81;35.69
42725;BME280;28369;44.046;23.014;2023-02-11T10:19:49;102501.88;;;9.41;35.41
42725;BME280;28369;44.046;23.014;2023-02-11T10:22:41;102513.88;;;9.99;34.23
42725;BME280;28369;44.046;23.014;2023-02-11T10:25:21;102437.44;;;9.53;34.48
42725;BME280;28369;44.046;23.014;2023-02-11T10:27:48;102835.66;;;12.18;34.26
42725;BME280;28369;44.046;23.014;2023-02-11T10:30:33;102478.72;;;10.35;33.56
42725;BME280;28369;44.046;23.014;2023-02-11T10:33:19;102818.41;;;12.89;32.99
42725;BME280;28369;44.046;23.014;2023-02-11T10:35:47;102820.03;;;12.15;33.61
42725;BME280;28369;44.046;23.014;2023-02-11T10:38:13;102537.72;;;10.95;33.55
42725;BME280;28369;44.046;23.014;2023-02-11T10:40:39;102487.03;;;10.10;33.47
42725;BME280;28369;44.046;23.014;2023-02-11T10:43:10;102471.59;;;10.20;32.98
42725;BME280;28369;44.046;23.014;2023-02-11T10:45:41;102981.28;;;14.23;32.38
42725;BME280;28369;44.046;23.014;2023-02-11T10:51:28;102521.09;;;10.95;32.75
42725;BME280;28369;44.046;23.014;2023-02-11T10:56:30;102970.69;;;13.35;34.22
42725;BME280;28369;44.046;23.014;2023-02-11T10:58:59;102497.88;;;11.33;34.07
42725;BME280;28369;44.046;23.014;2023-02-11T11:04:05;102919.00;;;14.03;33.87
42725;BME280;28369;44.046;23.014;2023-02-11T11:06:32;102427.13;;;11.86;32.39
42725;BME280;28369;44.046;23.014;2023-02-11T11:08:59;102479.34;;;11.80;32.34
42725;BME280;28369;44.046;23.014;2023-02-11T11:11:26;102741.06;;;13.74;32.20
42725;BME280;28369;44.046;23.014;2023-02-11T11:16:25;102420.56;;;12.22;31.82
42725;BME280;28369;44.046;23.014;2023-02-11T11:19:13;102495.09;;;12.68;31.63
42725;BME280;28369;44.046;23.014;2023-02-11T11:21:44;102445.78;;;12.26;32.11
42725;BME280;28369;44.046;23.014;2023-02-11T11:24:38;102429.03;;;11.39;32.85
42725;BME280;28369;44.046;23.014;2023-02-11T11:27:05;102600.50;;;13.12;32.49
42725;BME280;28369;44.046;23.014;2023-02-11T11:29:41;102377.59;;;11.48;32.39
42725;BME280;28369;44.046;23.014;2023-02-11T11:32:27;102367.84;;;11.65;31.99
42725;BME280;28369;44.046;23.014;2023-02-11T11:35:02;102395.22;;;11.76;32.29
42725;BME280;28369;44.046;23.014;2023-02-11T11:37:37;102458.66;;;11.88;32.08
42725;BME280;28369;44.046;23.014;2023-02-11T11:40:20;102877.41;;;15.01;31.70
42725;BME280;28369;44.046;23.014;2023-02-11T11:43:02;102699.78;;;14.26;31.52
42725;BME280;28369;44.046;23.014;2023-02-11T11:45:28;102874.38;;;15.08;31.17
42725;BME280;28369;44.046;23.014;2023-02-11T11:50:48;102475.66;;;12.13;31.69
42725;BME280;28369;44.046;23.014;2023-02-11T11:58:30;102337.53;;;11.86;31.83
42725;BME280;28369;44.046;23.014;2023-02-11T12:10:24;102826.47;;;15.49;31.67
42725;BME280;28369;44.046;23.014;2023-02-11T12:13:31;102818.63;;;15.48;32.01
42725;BME280;28369;44.046;23.014;2023-02-11T12:25:05;102804.38;;;15.49;31.99
42725;BME280;28369;44.046;23.014;2023-02-11T12:33:56;102265.28;;;12.45;30.74
42725;BME280;28369;44.046;23.014;2023-02-11T12:42:16;102320.88;;;12.42;31.49
42725;BME280;28369;44.046;23.014;2023-02-11T12:45:27;102763.72;;;15.11;31.78
42725;BME280;28369;44.046;23.014;2023-02-11T12:50:46;102255.88;;;12.41;30.41
42725;BME280;28369;44.046;23.014;2023-02-11T12:56:30;102755.28;;;15.93;31.62
42725;BME280;28369;44.046;23.014;2023-02-11T12:58:59;102476.09;;;13.83;32.28
42725;BME280;28369;44.046;23.014;2023-02-11T13:01:34;102586.34;;;14.60;32.02
42725;BME280;28369;44.046;23.014;2023-02-11T13:04:15;102750.75;;;15.45;32.51
42725;BME280;28369;44.046;23.014;2023-02-11T13:06:52;102255.00;;;12.27;32.32
42725;BME280;28369;44.046;23.014;2023-02-11T13:09:25;102238.34;;;12.40;32.10
42725;BME280;28369;44.046;23.014;2023-02-11T13:11:56;102228.88;;;12.50;31.73
42725;BME280;28369;44.046;23.014;2023-02-11T13:14:43;102261.31;;;12.78;31.91
42725;BME280;28369;44.046;23.014;2023-02-11T13:17:23;102732.94;;;15.47;32.58
42725;BME280;28369;44.046;23.014;2023-02-11T13:19:58;102238.03;;;12.44;32.52
42725;BME280;28369;44.046;23.014;2023-02-11T13:22:40;102232.72;;;12.72;32.71
42725;BME280;28369;44.046;23.014;2023-02-11T13:30:33;102426.06;;;14.06;31.61
42725;BME280;28369;44.046;23.014;2023-02-11T13:33:03;102471.69;;;14.59;31.58
42725;BME280;28369;44.046;23.014;2023-02-11T13:35:40;102232.41;;;13.15;31.28
42725;BME280;28369;44.046;23.014;2023-02-11T13:38:19;102699.38;;;15.96;31.03
42725;BME280;28369;44.046;23.014;2023-02-11T13:41:15;102696.03;;;16.05;30.58
42725;BME280;28369;44.046;23.014;2023-02-11T13:43:42;102231.34;;;13.05;31.06
42725;BME280;28369;44.046;23.014;2023-02-11T13:46:11;102354.22;;;13.75;31.44
42725;BME280;28369;44.046;23.014;2023-02-11T13:48:51;102199.97;;;12.61;31.35
42725;BME280;28369;44.046;23.014;2023-02-11T13:51:34;102508.00;;;14.94;31.28
42725;BME280;28369;44.046;23.014;2023-02-11T13:54:02;102411.13;;;14.55;31.00
42725;BME280;28369;44.046;23.014;2023-02-11T13:56:39;102172.03;;;12.85;31.47
42725;BME280;28369;44.046;23.014;2023-02-11T14:02:20;102193.63;;;13.16;31.78
42725;BME280;28369;44.046;23.014;2023-02-11T14:10:55;102181.50;;;12.74;32.15
42725;BME280;28369;44.046;23.014;2023-02-11T14:13:31;102362.22;;;14.36;32.09
42725;BME280;28369;44.046;23.014;2023-02-11T14:16:18;102170.66;;;12.79;32.36
42725;BME280;28369;44.046;23.014;2023-02-11T14:21:16;102179.50;;;12.78;32.30
42725;BME280;28369;44.046;23.014;2023-02-11T14:23:43;102671.81;;;15.62;32.29
42725;BME280;28369;44.046;23.014;2023-02-11T14:28:47;102194.81;;;12.86;32.20
42725;BME280;28369;44.046;23.014;2023-02-11T14:31:28;102265.03;;;13.53;31.84
42725;BME280;28369;44.046;23.014;2023-02-11T14:37:11;102203.38;;;12.89;31.67
42725;BME280;28369;44.046;23.014;2023-02-11T14:42:22;102197.03;;;12.53;31.87
42725;BME280;28369;44.046;23.014;2023-02-11T14:44:53;102665.94;;;15.08;32.26
42725;BME280;28369;44.046;23.014;2023-02-11T14:47:23;102342.28;;;13.56;32.21
42725;BME280;28369;44.046;23.014;2023-02-11T14:49:52;102306.69;;;13.36;31.95
42725;BME280;28369;44.046;23.014;2023-02-11T14:52:33;102230.81;;;12.74;31.90
42725;BME280;28369;44.046;23.014;2023-02-11T14:55:08;102620.41;;;15.27;32.23
42725;BME280;28369;44.046;23.014;2023-02-11T14:57:39;102444.06;;;13.49;32.84